Time;durP1;ratioP1;P1;durP2;ratioP2;P2;SDS_P1;SDS_P2;PMS_P1;PMS_P2;Temp;Humidity;BMP_temperature;BMP_pressure;BME280_temperature;BME280_humidity;BME280_pressure;Samples;Min_cycle;Max_cycle;Signal;HPM_P1;HPM_P2
2021/08/18 00:02:11;;;;;;;10.80;6.50;;;;;;;18.26;100.00;96533.28;5011089;28;20081;-56
2021/08/18 00:04:39;;;;;;;9.05;5.75;;;;;;;18.35;100.00;96531.34;5013098;28;20080;-58
2021/08/18 00:07:08;;;;;;;10.95;6.35;;;;;;;18.67;100.00;96533.44;5010777;28;20079;-56
2021/08/18 00:09:38;;;;;;;12.20;6.57;;;;;;;18.59;100.00;96530.09;5004388;28;20065;-52
2021/08/18 00:12:07;;;;;;;11.10;6.53;;;;;;;18.24;100.00;96528.16;5006462;28;20554;-57
2021/08/18 00:14:36;;;;;;;10.48;6.40;;;;;;;17.92;100.00;96529.47;5010268;28;20084;-58
2021/08/18 00:17:04;;;;;;;10.55;6.20;;;;;;;18.27;100.00;96525.13;5011438;28;20077;-53
2021/08/18 00:19:33;;;;;;;11.65;6.32;;;;;;;17.87;100.00;96520.38;5013153;28;20568;-58
2021/08/18 00:22:01;;;;;;;12.38;6.40;;;;;;;17.84;100.00;96515.44;5012852;28;21372;-59
2021/08/18 00:24:30;;;;;;;10.95;6.45;;;;;;;17.78;100.00;96519.66;5008967;28;20084;-55
2021/08/18 00:26:59;;;;;;;12.52;6.20;;;;;;;17.59;100.00;96521.06;5011278;28;20064;-58
2021/08/18 00:29:39;;;;;;;11.07;6.32;;;;;;;17.87;100.00;96515.06;5007668;28;20062;-55
2021/08/18 00:32:09;;;;;;;12.57;6.72;;;;;;;17.68;100.00;96511.91;5014414;28;20084;-50
2021/08/18 00:34:38;;;;;;;10.63;6.00;;;;;;;18.19;100.00;96516.38;5005712;28;20085;-55
2021/08/18 00:37:06;;;;;;;10.52;6.10;;;;;;;18.08;100.00;96525.72;5009422;28;20893;-51
2021/08/18 00:39:35;;;;;;;9.93;6.40;;;;;;;18.23;100.00;96520.31;5010324;28;20065;-59
2021/08/18 00:42:05;;;;;;;13.60;6.93;;;;;;;18.32;100.00;96515.69;5008619;28;20083;-57
2021/08/18 00:44:33;;;;;;;;;;;;;;;18.13;100.00;96520.63;5008965;28;20065;-57
2021/08/18 00:47:04;;;;;;;12.50;6.78;;;;;;;18.27;100.00;96522.44;5011379;28;20489;-60
2021/08/18 00:49:33;;;;;;;12.43;6.80;;;;;;;18.34;100.00;96514.50;5007609;28;20479;-58
2021/08/18 00:52:03;;;;;;;12.20;6.55;;;;;;;18.14;100.00;96524.16;4989161;28;20066;-60
2021/08/18 00:54:50;;;;;;;11.30;6.47;;;;;;;18.06;100.00;96517.09;4997339;28;20066;-59
2021/08/18 00:57:19;;;;;;;12.27;6.97;;;;;;;18.15;100.00;96515.13;5006820;28;20066;-59
2021/08/18 00:59:50;;;;;;;12.05;6.80;;;;;;;18.10;100.00;96517.53;5010582;28;20092;-58
2021/08/18 01:02:18;;;;;;;12.05;6.65;;;;;;;17.49;100.00;96510.69;5000474;28;20061;-55
2021/08/18 01:04:48;;;;;;;14.02;6.93;;;;;;;18.01;100.00;96509.66;5013808;28;20058;-56
2021/08/18 01:07:17;;;;;;;13.80;7.03;;;;;;;18.19;100.00;96517.22;5004785;28;20088;-58
2021/08/18 01:09:45;;;;;;;13.93;7.13;;;;;;;17.99;100.00;96505.50;5004530;28;20805;-54
2021/08/18 01:12:14;;;;;;;14.23;8.10;;;;;;;17.83;100.00;96514.59;5002821;28;20590;-59
2021/08/18 01:14:43;;;;;;;11.15;6.85;;;;;;;17.73;100.00;96514.88;5024763;28;20061;-58
2021/08/18 01:17:13;;;;;;;12.32;6.93;;;;;;;17.92;100.00;96517.97;5018540;28;20073;-60
2021/08/18 01:19:42;;;;;;;12.75;6.88;;;;;;;18.53;100.00;96502.31;5007686;28;20085;-54
2021/08/18 01:22:10;;;;;;;13.50;7.32;;;;;;;18.30;100.00;96513.19;5004978;28;20077;-51
2021/08/18 01:24:39;;;;;;;13.80;7.57;;;;;;;18.18;100.00;96512.06;5009728;28;20070;-58
2021/08/18 01:27:08;;;;;;;13.18;7.47;;;;;;;17.91;100.00;96513.66;5004041;28;20482;-59
2021/08/18 01:29:38;;;;;;;13.68;7.43;;;;;;;18.47;100.00;96511.91;5008210;28;20479;-59
2021/08/18 01:32:07;;;;;;;13.85;6.88;;;;;;;18.35;100.00;96507.31;5008232;28;20081;-53
2021/08/18 01:34:36;;;;;;;12.20;7.05;;;;;;;18.67;100.00;96506.72;5008036;28;20058;-59
2021/08/18 01:37:05;;;;;;;12.52;7.28;;;;;;;18.42;100.00;96505.53;5023935;28;20072;-59
2021/08/18 01:39:34;;;;;;;13.02;7.28;;;;;;;18.36;100.00;96503.63;5011514;28;20069;-52
2021/08/18 01:42:03;;;;;;;13.63;7.10;;;;;;;17.93;100.00;96504.44;5006611;28;20084;-59
2021/08/18 01:44:32;;;;;;;12.50;6.95;;;;;;;18.12;100.00;96502.97;5008458;28;20057;-58
2021/08/18 01:47:02;;;;;;;10.75;6.13;;;;;;;17.62;100.00;96506.50;5007053;28;20568;-57
2021/08/18 01:49:30;;;;;;;12.45;7.10;;;;;;;17.91;100.00;96500.31;5015018;28;20069;-59
2021/08/18 01:51:59;;;;;;;12.07;7.07;;;;;;;17.67;100.00;96504.13;5007620;28;20713;-56
2021/08/18 01:54:29;;;;;;;11.65;6.72;;;;;;;18.14;100.00;96502.81;5006617;28;20104;-58
2021/08/18 01:56:58;;;;;;;10.40;6.63;;;;;;;17.93;100.00;96506.28;5026748;28;20077;-58
2021/08/18 01:59:27;;;;;;;13.07;7.07;;;;;;;17.98;100.00;96504.69;5008853;28;20453;-57
2021/08/18 02:01:55;;;;;;;13.43;7.43;;;;;;;17.98;100.00;96502.03;5011485;28;20485;-60
2021/08/18 02:04:25;;;;;;;13.27;7.68;;;;;;;18.13;100.00;96503.81;5013225;28;20080;-60
2021/08/18 02:06:54;;;;;;;13.35;6.55;;;;;;;17.95;100.00;96496.25;5015263;28;20060;-60
2021/08/18 02:09:22;;;;;;;13.73;6.38;;;;;;;17.61;100.00;96496.88;5005195;28;20449;-58
2021/08/18 02:11:51;;;;;;;13.15;6.50;;;;;;;18.22;100.00;96495.47;5016033;28;20609;-57
2021/08/18 02:14:19;;;;;;;13.43;6.97;;;;;;;18.03;100.00;96493.44;5010610;28;20551;-57
2021/08/18 02:16:48;;;;;;;12.65;6.75;;;;;;;17.78;100.00;96487.66;5013544;28;20054;-58
2021/08/18 02:19:16;;;;;;;13.15;7.13;;;;;;;18.09;100.00;96494.53;5008029;28;20410;-58
2021/08/18 02:21:46;;;;;;;12.82;6.72;;;;;;;17.83;100.00;96490.59;5006312;28;20464;-56
2021/08/18 02:24:15;;;;;;;13.55;7.13;;;;;;;17.98;100.00;96483.34;5004406;28;20593;-57
2021/08/18 02:26:43;;;;;;;11.90;7.07;;;;;;;17.93;100.00;96482.28;5005386;28;20065;-57
2021/08/18 02:29:11;;;;;;;13.30;7.30;;;;;;;17.56;100.00;96487.59;5010154;28;23861;-52
2021/08/18 02:31:40;;;;;;;14.48;7.43;;;;;;;17.78;100.00;96492.97;5016231;28;20081;-55
2021/08/18 02:34:12;;;;;;;12.25;7.03;;;;;;;17.70;100.00;96485.91;5003389;28;20133;-54
2021/08/18 02:36:40;;;;;;;;;;;;;;;17.51;100.00;96486.50;5010165;28;20058;-55
2021/08/18 02:39:10;;;;;;;12.60;6.75;;;;;;;17.67;100.00;96482.78;5008864;28;19957;-57
2021/08/18 02:41:38;;;;;;;16.30;7.15;;;;;;;17.79;100.00;96471.47;5007122;28;20066;-54
2021/08/18 02:44:07;;;;;;;13.82;7.68;;;;;;;17.88;100.00;96464.16;5014356;28;20197;-57
2021/08/18 02:46:35;;;;;;;12.70;7.22;;;;;;;17.64;100.00;96465.31;5013040;28;20081;-55
2021/08/18 02:49:03;;;;;;;14.10;7.85;;;;;;;17.56;100.00;96462.78;5010626;28;20546;-56
2021/08/18 02:51:32;;;;;;;13.38;7.28;;;;;;;17.78;100.00;96463.66;5010428;28;20548;-57
2021/08/18 02:54:03;;;;;;;13.15;7.55;;;;;;;17.96;100.00;96464.06;5016745;28;20042;-57
2021/08/18 02:56:33;;;;;;;12.00;7.65;;;;;;;18.03;100.00;96467.59;5007580;28;20535;-57
2021/08/18 02:59:01;;;;;;;16.80;7.85;;;;;;;17.99;100.00;96473.50;5007956;28;20129;-56
2021/08/18 03:01:30;;;;;;;17.40;8.00;;;;;;;17.90;100.00;96474.66;5011245;28;20128;-56
2021/08/18 03:03:58;;;;;;;16.10;8.27;;;;;;;18.09;100.00;96463.31;5005534;28;20130;-56
2021/08/18 03:06:27;;;;;;;16.02;7.50;;;;;;;17.66;100.00;96467.81;5000105;28;20076;-54
2021/08/18 03:08:55;;;;;;;16.85;8.73;;;;;;;17.66;100.00;96473.16;5007306;28;20176;-52
2021/08/18 03:11:24;;;;;;;14.55;7.78;;;;;;;18.08;100.00;96469.69;5003094;28;20076;-53
2021/08/18 03:13:54;;;;;;;16.35;8.52;;;;;;;17.90;100.00;96466.66;5004183;28;20081;-59
2021/08/18 03:16:22;;;;;;;15.88;8.25;;;;;;;17.75;100.00;96472.81;5013511;28;20085;-59
2021/08/18 03:18:51;;;;;;;14.63;7.78;;;;;;;17.49;100.00;96469.88;5008409;28;20074;-57
2021/08/18 03:21:19;;;;;;;14.63;8.50;;;;;;;18.02;100.00;96470.44;5008865;28;20061;-56
2021/08/18 03:23:48;;;;;;;14.50;7.72;;;;;;;18.43;100.00;96465.25;5016686;28;20058;-58
2021/08/18 03:26:20;;;;;;;19.67;8.20;;;;;;;18.05;100.00;96471.91;5010540;28;20077;-58
2021/08/18 03:28:48;;;;;;;18.05;8.68;;;;;;;18.13;100.00;96467.25;5005362;28;20084;-53
2021/08/18 03:31:18;;;;;;;15.23;8.18;;;;;;;18.51;100.00;96466.94;5000381;28;21690;-55
2021/08/18 03:33:47;;;;;;;19.02;9.05;;;;;;;18.19;100.00;96473.69;5006063;28;20076;-57
2021/08/18 03:36:15;;;;;;;18.60;9.15;;;;;;;18.11;100.00;96474.66;5002848;28;20048;-56
2021/08/18 03:38:44;;;;;;;17.60;8.77;;;;;;;18.26;100.00;96471.91;5010031;28;20726;-56
2021/08/18 03:41:12;;;;;;;17.98;8.82;;;;;;;17.94;100.00;96473.25;5009636;28;20068;-58
2021/08/18 03:43:41;;;;;;;16.65;8.23;;;;;;;18.52;100.00;96470.47;5007819;28;20497;-57
2021/08/18 03:46:10;;;;;;;16.77;8.27;;;;;;;18.06;100.00;96469.03;5003103;28;20073;-54
2021/08/18 03:48:40;;;;;;;17.35;8.68;;;;;;;18.47;100.00;96463.03;5022716;28;20073;-56
2021/08/18 03:51:08;;;;;;;15.95;8.25;;;;;;;18.06;100.00;96466.38;5010290;28;20559;-59
2021/08/18 03:53:37;;;;;;;19.05;8.88;;;;;;;18.09;100.00;96470.50;5008044;28;20076;-55
2021/08/18 03:56:06;;;;;;;17.60;9.40;;;;;;;18.81;100.00;96478.28;5013612;28;20033;-60
2021/08/18 03:58:34;;;;;;;18.33;9.52;;;;;;;18.25;100.00;96471.06;4998112;28;20501;-60
2021/08/18 04:01:02;;;;;;;17.35;8.75;;;;;;;17.99;100.00;96484.16;4984157;28;20560;-53
2021/08/18 04:03:32;;;;;;;16.65;8.63;;;;;;;18.30;100.00;96481.16;4995824;28;20080;-56
2021/08/18 04:06:03;;;;;;;19.63;9.15;;;;;;;18.04;100.00;96492.44;5007212;28;20563;-57
2021/08/18 04:08:31;;;;;;;16.20;8.68;;;;;;;18.47;100.00;96492.41;5004313;28;20069;-58
2021/08/18 04:11:04;;;;;;;16.70;9.50;;;;;;;18.33;100.00;96488.78;5007593;28;20080;-57
2021/08/18 04:13:33;;;;;;;20.42;9.43;;;;;;;18.21;100.00;96493.84;5011255;28;20081;-60
2021/08/18 04:16:01;;;;;;;18.35;9.23;;;;;;;18.71;100.00;96492.00;5004919;28;20076;-57
2021/08/18 04:18:30;;;;;;;18.13;9.25;;;;;;;18.64;100.00;96487.59;5002370;28;20120;-58
2021/08/18 04:20:58;;;;;;;18.50;9.57;;;;;;;18.25;100.00;96496.94;5012339;28;20081;-57
2021/08/18 04:23:28;;;;;;;20.02;10.23;;;;;;;18.35;100.00;96499.28;5002618;28;20686;-53
2021/08/18 04:25:57;;;;;;;19.30;9.80;;;;;;;18.00;100.00;96509.84;5006108;28;20073;-56
2021/08/18 04:28:25;;;;;;;17.05;9.73;;;;;;;18.18;100.00;96504.91;5005256;28;20730;-55
2021/08/18 04:30:54;;;;;;;25.40;10.88;;;;;;;18.50;100.00;96497.34;5012000;28;20076;-57
2021/08/18 04:33:22;;;;;;;20.52;10.13;;;;;;;19.11;100.00;96500.28;5006255;28;20080;-60
2021/08/18 04:35:51;;;;;;;19.48;9.98;;;;;;;18.47;100.00;96503.91;5026159;28;20081;-53
2021/08/18 04:38:20;;;;;;;17.33;9.20;;;;;;;18.73;100.00;96500.66;5022176;28;20108;-60
2021/08/18 04:40:49;;;;;;;14.05;8.30;;;;;;;18.08;100.00;96503.56;5011927;28;20491;-58
2021/08/18 04:43:19;;;;;;;17.58;9.85;;;;;;;18.97;100.00;96495.88;5012932;28;20343;-59
2021/08/18 04:45:48;;;;;;;18.15;9.38;;;;;;;18.98;100.00;96500.19;5013261;28;20562;-55
2021/08/18 04:48:16;;;;;;;19.17;10.18;;;;;;;19.42;100.00;96493.63;5018419;28;20068;-61
2021/08/18 04:50:45;;;;;;;19.33;9.63;;;;;;;18.56;100.00;96501.13;5009214;28;20062;-59
2021/08/18 04:53:14;;;;;;;17.85;10.38;;;;;;;19.09;100.00;96504.16;5008886;28;20437;-56
2021/08/18 04:55:42;;;;;;;19.50;9.85;;;;;;;19.10;100.00;96513.84;5014076;28;20100;-55
2021/08/18 04:58:12;;;;;;;18.88;9.85;;;;;;;18.81;100.00;96510.34;5015650;28;20080;-60
2021/08/18 05:00:41;;;;;;;22.27;10.70;;;;;;;19.34;100.00;96502.66;5007261;28;20061;-58
2021/08/18 05:03:13;;;;;;;22.48;9.63;;;;;;;18.82;100.00;96505.84;5010223;28;20559;-57
2021/08/18 05:05:42;;;;;;;18.60;10.13;;;;;;;19.12;100.00;96509.94;5032247;28;20077;-59
2021/08/18 05:08:11;;;;;;;18.58;10.00;;;;;;;18.54;100.00;96501.28;5002643;28;22600;-52
2021/08/18 05:10:39;;;;;;;20.90;9.52;;;;;;;18.75;100.00;96508.47;5014965;28;20062;-57
2021/08/18 05:13:08;;;;;;;22.30;10.40;;;;;;;18.94;100.00;96505.09;5006140;28;20464;-54
2021/08/18 05:15:38;;;;;;;18.92;9.90;;;;;;;19.27;100.00;96506.31;5007170;28;20061;-57
2021/08/18 05:18:06;;;;;;;20.20;10.02;;;;;;;18.78;100.00;96513.41;5018455;28;20081;-57
2021/08/18 05:20:35;;;;;;;17.40;9.73;;;;;;;18.99;100.00;96504.50;5011675;28;20042;-56
2021/08/18 05:23:03;;;;;;;21.58;10.68;;;;;;;18.91;100.00;96510.84;5025611;28;20073;-55
2021/08/18 05:25:32;;;;;;;20.58;10.40;;;;;;;18.95;100.00;96511.28;5015209;28;20069;-53
2021/08/18 05:28:04;;;;;;;17.35;9.90;;;;;;;19.54;100.00;96507.25;5010069;28;20076;-53
2021/08/18 05:30:33;;;;;;;17.98;10.10;;;;;;;19.09;100.00;96515.69;5018497;28;20566;-58
2021/08/18 05:33:03;;;;;;;18.50;10.48;;;;;;;19.48;100.00;96511.56;5018057;28;20081;-57
2021/08/18 05:35:31;;;;;;;17.00;9.70;;;;;;;19.91;100.00;96501.44;5009986;28;20538;-58
2021/08/18 05:38:00;;;;;;;22.17;10.52;;;;;;;19.65;100.00;96506.75;5014443;28;20308;-57
2021/08/18 05:40:28;;;;;;;19.38;10.32;;;;;;;19.76;100.00;96508.81;5015049;28;20074;-55
2021/08/18 05:42:57;;;;;;;22.00;9.93;;;;;;;19.81;100.00;96514.38;5013741;28;20532;-57
2021/08/18 05:45:25;;;;;;;17.95;9.88;;;;;;;20.03;100.00;96516.94;5011491;28;20033;-57
2021/08/18 05:47:54;;;;;;;17.95;10.63;;;;;;;19.87;100.00;96515.44;5013283;28;20539;-54
2021/08/18 05:50:24;;;;;;;16.55;10.05;;;;;;;19.36;100.00;96521.16;5020747;28;20068;-52
2021/08/18 05:52:52;;;;;;;20.85;10.82;;;;;;;19.12;100.00;96525.97;5007285;28;20085;-59
2021/08/18 05:55:22;;;;;;;18.65;10.32;;;;;;;19.52;100.00;96520.84;5016131;28;20066;-57
2021/08/18 05:57:51;;;;;;;19.58;10.63;;;;;;;19.59;100.00;96521.69;5014191;28;20084;-56
2021/08/18 06:00:19;;;;;;;15.82;8.50;;;;;;;18.85;100.00;96524.97;5011529;28;20456;-52
2021/08/18 06:02:48;;;;;;;18.90;10.63;;;;;;;19.37;100.00;96526.34;5014574;28;20421;-55
2021/08/18 06:05:17;;;;;;;19.52;10.02;;;;;;;19.59;100.00;96532.41;5018346;28;20442;-53
2021/08/18 06:07:47;;;;;;;19.02;10.48;;;;;;;19.31;100.00;96529.81;5007916;28;20460;-59
2021/08/18 06:10:16;;;;;;;19.05;9.68;;;;;;;19.21;100.00;96532.81;5014746;28;20098;-57
2021/08/18 06:12:44;;;;;;;19.27;10.68;;;;;;;20.06;100.00;96528.06;5019106;28;20076;-57
2021/08/18 06:15:13;;;;;;;17.23;9.63;;;;;;;19.63;100.00;96530.19;5024475;28;20065;-54
2021/08/18 06:17:42;;;;;;;18.38;11.07;;;;;;;19.37;100.00;96538.84;5004484;28;20062;-56
2021/08/18 06:20:11;;;;;;;20.85;10.10;;;;;;;19.60;100.00;96535.91;5011274;28;20120;-59
2021/08/18 06:22:40;;;;;;;19.80;10.27;;;;;;;20.08;100.00;96525.16;5009916;28;20108;-60
2021/08/18 06:25:11;;;;;;;16.90;9.60;;;;;;;20.18;100.00;96524.78;5013848;28;20069;-55
2021/08/18 06:27:39;;;;;;;21.42;10.85;;;;;;;19.91;100.00;96530.06;5013808;28;20531;-52
2021/08/18 06:30:10;;;;;;;21.10;10.27;;;;;;;20.44;100.00;96532.84;4993417;28;20068;-49
2021/08/18 06:32:38;;;;;;;18.70;10.35;;;;;;;20.25;100.00;96522.94;4985194;28;20038;-56
2021/08/18 06:35:08;;;;;;;17.88;10.20;;;;;;;21.35;100.00;96526.03;4997043;28;20080;-57
2021/08/18 06:37:39;;;;;;;18.58;10.38;;;;;;;21.60;100.00;96516.22;4990276;28;20462;-59
2021/08/18 06:40:11;;;;;;;18.27;10.35;;;;;;;20.55;100.00;96521.56;5010497;28;20066;-50
2021/08/18 06:42:41;;;;;;;19.42;10.50;;;;;;;20.95;100.00;96523.38;5021755;28;20520;-59
2021/08/18 06:45:12;;;;;;;16.92;9.77;;;;;;;20.79;100.00;96520.09;5011883;28;20076;-56
2021/08/18 06:47:40;;;;;;;18.63;10.05;;;;;;;20.78;100.00;96518.44;5012814;28;20066;-57
2021/08/18 06:50:10;;;;;;;18.58;10.35;;;;;;;20.95;100.00;96521.50;5011804;28;20085;-56
2021/08/18 06:52:38;;;;;;;17.42;9.45;;;;;;;21.00;100.00;96515.56;5019561;28;20532;-55
2021/08/18 06:55:08;;;;;;;17.85;9.55;;;;;;;20.31;100.00;96520.28;5011195;28;20065;-58
2021/08/18 06:57:38;;;;;;;18.52;10.88;;;;;;;20.33;100.00;96520.88;5018352;28;20088;-58
2021/08/18 07:00:09;;;;;;;20.08;10.98;;;;;;;20.78;100.00;96520.28;5008905;28;20483;-56
2021/08/18 07:02:42;;;;;;;16.98;10.35;;;;;;;20.52;100.00;96526.50;5015454;28;20057;-50
2021/08/18 07:05:11;;;;;;;18.30;10.80;;;;;;;20.93;100.00;96523.59;5000175;28;20081;-57
2021/08/18 07:07:40;;;;;;;17.85;10.48;;;;;;;21.09;100.00;96525.84;5011294;28;20655;-55
2021/08/18 07:10:09;;;;;;;20.45;11.55;;;;;;;21.64;100.00;96524.66;5006830;28;20065;-54
2021/08/18 07:12:39;;;;;;;17.48;9.95;;;;;;;20.42;100.00;96526.88;5006619;28;20065;-54
2021/08/18 07:15:08;;;;;;;22.15;11.80;;;;;;;21.36;100.00;96530.34;5006318;28;20069;-56
2021/08/18 07:17:37;;;;;;;18.58;10.73;;;;;;;21.72;100.00;96525.28;5011952;28;20412;-56
2021/08/18 07:20:07;;;;;;;20.83;10.90;;;;;;;21.01;100.00;96519.88;5006843;28;20475;-55
2021/08/18 07:22:35;;;;;;;17.97;10.70;;;;;;;20.76;100.00;96520.53;5014905;28;20598;-53
2021/08/18 07:25:05;;;;;;;22.23;12.57;;;;;;;21.52;100.00;96511.94;5018233;28;20104;-52
2021/08/18 07:27:33;;;;;;;19.38;12.18;;;;;;;21.96;100.00;96510.28;5011408;28;20489;-59
2021/08/18 07:30:03;;;;;;;21.50;12.10;;;;;;;22.19;100.00;96509.75;5007682;28;20100;-59
2021/08/18 07:32:32;;;;;;;;;;;;;;;21.73;100.00;96516.16;5007922;28;20503;-56
2021/08/18 07:35:00;;;;;;;21.73;11.60;;;;;;;22.60;100.00;96507.59;5020659;28;19959;-58
2021/08/18 07:37:30;;;;;;;19.13;12.38;;;;;;;23.24;100.00;96511.78;5015271;28;20068;-57
2021/08/18 07:39:59;;;;;;;22.83;12.63;;;;;;;22.44;100.00;96512.47;5026229;28;20037;-57
2021/08/18 07:42:28;;;;;;;21.60;11.88;;;;;;;21.96;100.00;96525.56;5012118;28;20033;-60
2021/08/18 07:44:57;;;;;;;19.83;11.48;;;;;;;22.43;100.00;96524.25;5017488;28;20057;-56
2021/08/18 07:47:27;;;;;;;20.17;11.35;;;;;;;21.60;100.00;96510.84;5011113;28;20061;-55
2021/08/18 07:49:55;;;;;;;22.73;12.38;;;;;;;22.36;100.00;96514.59;5018249;28;20034;-53
2021/08/18 07:52:24;;;;;;;20.70;12.38;;;;;;;21.74;100.00;96517.81;5020232;28;20516;-57
2021/08/18 07:54:53;;;;;;;21.25;12.38;;;;;;;21.81;100.00;96517.78;5010623;28;20068;-55
2021/08/18 07:57:21;;;;;;;24.13;12.13;;;;;;;21.28;100.00;96516.09;5025297;28;20078;-52
2021/08/18 07:59:51;;;;;;;23.88;13.50;;;;;;;22.37;100.00;96521.63;5022257;28;20034;-53
2021/08/18 08:02:20;;;;;;;22.75;13.50;;;;;;;22.16;100.00;96520.09;5013067;28;20064;-59
2021/08/18 08:04:50;;;;;;;19.08;12.00;;;;;;;21.19;100.00;96516.53;5015517;28;20551;-51
2021/08/18 08:07:37;;;;;;;22.13;12.27;;;;;;;21.73;100.00;96523.41;5003994;28;20053;-58
2021/08/18 08:10:08;;;;;;;19.25;11.75;;;;;;;21.48;100.00;96524.13;5016807;28;20052;-58
2021/08/18 08:12:36;;;;;;;24.23;12.98;;;;;;;21.29;100.00;96523.09;5011118;28;20064;-59
2021/08/18 08:15:07;;;;;;;21.48;12.68;;;;;;;22.12;100.00;96521.53;5012917;28;20544;-55
2021/08/18 08:17:35;;;;;;;22.48;13.07;;;;;;;22.08;100.00;96528.38;5010680;28;20534;-56
2021/08/18 08:20:07;;;;;;;22.38;12.90;;;;;;;22.21;100.00;96522.97;5018125;28;20072;-53
2021/08/18 08:22:35;;;;;;;20.63;11.65;;;;;;;21.80;100.00;96527.69;5008837;28;20081;-55
2021/08/18 08:25:05;;;;;;;21.95;13.02;;;;;;;22.38;100.00;96523.28;5015436;28;20061;-53
2021/08/18 08:27:34;;;;;;;20.35;11.88;;;;;;;21.53;100.00;96526.97;5014139;28;20076;-53
2021/08/18 08:30:02;;;;;;;21.92;12.88;;;;;;;21.85;100.00;96527.06;5008958;28;20107;-50
2021/08/18 08:32:31;;;;;;;23.02;13.27;;;;;;;22.15;100.00;96527.34;5010651;28;20085;-48
2021/08/18 08:34:59;;;;;;;20.05;12.10;;;;;;;21.80;100.00;96530.38;5014357;28;20069;-55
2021/08/18 08:37:30;;;;;;;20.30;12.30;;;;;;;22.18;100.00;96526.91;5018492;28;20076;-56
2021/08/18 08:39:58;;;;;;;22.27;12.10;;;;;;;22.27;100.00;96522.94;5006845;28;20088;-55
2021/08/18 08:42:33;;;;;;;20.10;12.32;;;;;;;22.44;100.00;96528.59;5008241;28;20053;-54
2021/08/18 08:45:23;;;;;;;19.50;12.82;;;;;;;22.92;98.90;96524.50;5000762;28;20045;-54
2021/08/18 08:48:00;;;;;;;19.48;12.75;;;;;;;22.48;100.00;96529.81;5011921;28;20038;-55
2021/08/18 08:50:49;;;;;;;19.13;11.40;;;;;;;22.21;100.00;96525.66;4998243;28;20045;-55
2021/08/18 08:53:24;;;;;;;18.40;11.25;;;;;;;22.15;100.00;96524.66;5023243;28;20116;-56
2021/08/18 08:55:58;;;;;;;17.02;9.73;;;;;;;21.42;100.00;96527.66;5036935;28;20056;-54
2021/08/18 08:58:30;;;;;;;19.90;11.80;;;;;;;21.45;100.00;96534.47;5033231;28;20067;-53
2021/08/18 09:00:58;;;;;;;19.60;11.60;;;;;;;21.50;100.00;96529.25;5012908;28;20062;-53
2021/08/18 09:03:27;;;;;;;19.45;10.98;;;;;;;21.49;100.00;96531.13;5019617;28;20074;-55
2021/08/18 09:05:59;;;;;;;18.00;11.07;;;;;;;21.90;100.00;96526.44;5034614;28;20457;-53
2021/08/18 09:08:28;;;;;;;18.35;10.05;;;;;;;21.60;100.00;96536.88;5017257;28;20069;-54
2021/08/18 09:11:10;;;;;;;15.20;9.63;;;;;;;21.65;100.00;96521.78;5010623;28;20049;-52
2021/08/18 09:13:41;;;;;;;17.65;9.52;;;;;;;21.85;100.00;96535.13;5025272;28;20088;-51
2021/08/18 09:16:11;;;;;;;15.40;9.07;;;;;;;21.84;100.00;96538.84;5012677;28;20092;-55
2021/08/18 09:18:42;;;;;;;17.40;9.98;;;;;;;21.05;100.00;96551.41;5016987;28;20531;-51
2021/08/18 09:21:30;;;;;;;19.25;9.93;;;;;;;21.60;100.00;96543.06;5010344;28;20640;-52
2021/08/18 09:24:23;;;;;;;18.63;10.55;;;;;;;22.02;100.00;96538.13;5014038;28;20112;-54
2021/08/18 09:26:54;;;;;;;18.52;11.50;;;;;;;21.88;100.00;96540.06;5022300;28;20069;-53
2021/08/18 09:29:34;;;;;;;19.45;11.52;;;;;;;22.77;100.00;96538.25;5014157;28;20080;-48
2021/08/18 09:32:20;;;;;;;19.05;10.93;;;;;;;23.16;96.86;96534.44;5011078;28;20079;-56
2021/08/18 09:35:01;;;;;;;17.08;10.55;;;;;;;22.69;100.00;96539.38;5009506;28;20116;-54
2021/08/18 09:37:31;;;;;;;16.40;10.10;;;;;;;23.61;97.49;96539.53;5014471;28;20096;-47
2021/08/18 09:40:01;;;;;;;14.80;9.00;;;;;;;23.37;95.11;96543.13;5019021;28;20069;-52
2021/08/18 09:42:32;;;;;;;18.17;10.65;;;;;;;23.24;96.16;96535.19;5011108;28;20065;-57
2021/08/18 09:45:23;;;;;;;15.00;9.57;;;;;;;23.17;98.21;96536.06;5016413;28;20074;-55
2021/08/18 09:48:05;;;;;;;15.40;9.82;;;;;;;22.82;96.93;96537.63;5022999;28;20069;-52
2021/08/18 09:50:46;;;;;;;15.70;9.60;;;;;;;22.83;99.89;96528.50;5027980;28;20107;-53
2021/08/18 09:53:17;;;;;;;15.77;9.35;;;;;;;22.36;100.00;96531.53;5010073;28;20111;-56
2021/08/18 09:55:55;;;;;;;13.82;8.65;;;;;;;22.51;97.63;96539.31;5013002;28;20481;-57
2021/08/18 09:58:32;;;;;;;17.50;9.88;;;;;;;23.41;89.88;96529.00;5012530;28;20410;-54
2021/08/18 10:01:03;;;;;;;15.82;9.27;;;;;;;23.07;95.84;96532.25;5005936;28;20175;-53
2021/08/18 10:03:33;;;;;;;17.77;10.82;;;;;;;24.19;86.51;96530.13;5008562;28;20077;-51
2021/08/18 10:06:02;;;;;;;15.20;9.77;;;;;;;23.41;88.82;96529.00;5018117;28;20072;-50
2021/08/18 10:08:31;;;;;;;16.88;10.30;;;;;;;23.45;87.33;96534.75;5014189;28;20065;-49
2021/08/18 10:11:01;;;;;;;14.10;8.60;;;;;;;23.29;87.19;96533.47;5012979;28;20073;-57
2021/08/18 10:13:29;;;;;;;17.45;8.60;;;;;;;23.20;85.81;96524.88;5010508;28;20050;-51
2021/08/18 10:15:58;;;;;;;15.95;8.68;;;;;;;22.97;91.76;96525.50;5025114;28;20057;-50
2021/08/18 10:18:29;;;;;;;13.77;8.80;;;;;;;22.43;99.14;96526.94;5012948;28;20074;-56
2021/08/18 10:20:58;;;;;;;;;;;;;;;22.92;95.00;96529.88;5014632;28;20069;-57
2021/08/18 10:23:48;;;;;;;14.13;8.98;;;;;;;22.63;100.00;96532.19;5016316;28;19978;-54
2021/08/18 10:26:50;;;;;;;15.75;10.15;;;;;;;23.77;89.70;96527.34;5011830;28;20076;-53
2021/08/18 10:29:38;;;;;;;17.30;9.80;;;;;;;24.01;88.65;96522.09;5021837;28;20065;-56
2021/08/18 10:32:11;;;;;;;15.23;9.50;;;;;;;23.97;84.79;96527.09;5008122;28;20095;-53
2021/08/18 10:34:42;;;;;;;14.45;9.23;;;;;;;24.57;79.41;96524.41;5010624;28;20088;-50
2021/08/18 10:37:27;;;;;;;15.38;9.55;;;;;;;24.48;81.73;96524.97;5016574;28;20073;-53
2021/08/18 10:39:58;;;;;;;15.35;9.10;;;;;;;24.55;80.99;96523.81;5020537;28;20453;-50
2021/08/18 10:42:34;;;;;;;;;;;;;;;25.12;75.69;96519.78;5011526;28;20045;-56
2021/08/18 10:45:41;;;;;;;14.63;9.25;;;;;;;25.08;74.67;96524.78;5012658;28;20355;-50
2021/08/18 10:48:12;;;;;;;16.25;9.60;;;;;;;24.93;72.68;96521.75;5006489;28;20053;-53
2021/08/18 10:50:43;;;;;;;14.73;9.55;;;;;;;25.28;71.88;96524.47;5023601;28;20290;-50
2021/08/18 10:53:32;;;;;;;15.30;10.18;;;;;;;24.55;78.09;96528.38;5006560;28;20096;-53
2021/08/18 10:56:00;;;;;;;13.75;8.35;;;;;;;23.88;82.22;96526.63;5010732;28;20479;-54
2021/08/18 10:58:32;;;;;;;13.27;9.05;;;;;;;24.36;77.77;96520.34;5020423;28;20088;-52
2021/08/18 11:01:00;;;;;;;13.30;8.73;;;;;;;24.96;74.64;96523.97;5023920;28;20065;-53
2021/08/18 11:03:32;;;;;;;13.32;8.50;;;;;;;24.45;73.99;96523.53;5002722;28;20082;-54
2021/08/18 11:06:00;;;;;;;13.07;8.70;;;;;;;24.34;74.96;96522.44;5013266;28;20069;-57
2021/08/18 11:08:38;;;;;;;13.75;8.18;;;;;;;24.33;78.85;96518.09;5033033;28;20061;-50
2021/08/18 11:11:17;;;;;;;12.48;7.60;;;;;;;24.36;79.75;96519.50;5017833;28;20085;-57
2021/08/18 11:13:49;;;;;;;13.15;7.75;;;;;;;23.93;84.69;96515.16;5009311;28;20480;-57
2021/08/18 11:16:20;;;;;;;15.32;8.35;;;;;;;24.53;75.26;96514.31;5009122;28;20067;-52
2021/08/18 11:18:53;;;;;;;12.30;8.18;;;;;;;25.19;73.82;96513.22;5010595;28;20481;-53
2021/08/18 11:21:24;;;;;;;13.30;8.02;;;;;;;23.60;84.79;96510.94;5016226;28;20088;-54
2021/08/18 11:23:59;;;;;;;13.32;7.82;;;;;;;23.47;86.11;96511.13;5010543;28;20137;-53
2021/08/18 11:26:30;;;;;;;12.98;7.85;;;;;;;23.11;94.64;96512.75;5011634;28;20456;-51
2021/08/18 11:29:03;;;;;;;12.60;7.85;;;;;;;23.31;91.99;96509.84;5009851;28;20093;-50
2021/08/18 11:31:39;;;;;;;12.68;8.63;;;;;;;24.46;86.19;96506.31;5009381;28;20547;-50
2021/08/18 11:34:22;;;;;;;12.15;8.40;;;;;;;24.49;87.02;96513.94;5013461;28;20065;-55